sensor_id;sensor_type;location;lat;lon;timestamp;P1;durP1;ratioP1;P2;durP2;ratioP2
62997;SDS011;55949;52.590;7.330;2022-08-26T00:01:00;13.63;;;9.15;;
62997;SDS011;55949;52.590;7.330;2022-08-26T00:02:01;13.23;;;9.75;;
62997;SDS011;55949;52.590;7.330;2022-08-26T00:03:02;12.38;;;9.20;;
62997;SDS011;55949;52.590;7.330;2022-08-26T00:04:03;16.45;;;9.05;;
62997;SDS011;55949;52.590;7.330;2022-08-26T00:05:04;11.02;;;8.25;;
62997;SDS011;55949;52.590;7.330;2022-08-26T00:06:05;12.68;;;7.68;;
62997;SDS011;55949;52.590;7.330;2022-08-26T00:07:06;13.48;;;8.50;;
62997;SDS011;55949;52.590;7.330;2022-08-26T00:08:07;10.57;;;8.35;;
62997;SDS011;55949;52.590;7.330;2022-08-26T00:09:09;16.20;;;8.88;;
62997;SDS011;55949;52.590;7.330;2022-08-26T00:10:10;11.75;;;8.38;;
62997;SDS011;55949;52.590;7.330;2022-08-26T00:11:11;10.65;;;8.95;;
62997;SDS011;55949;52.590;7.330;2022-08-26T00:12:12;12.73;;;8.90;;
62997;SDS011;55949;52.590;7.330;2022-08-26T00:13:13;14.88;;;10.63;;
62997;SDS011;55949;52.590;7.330;2022-08-26T00:14:13;13.95;;;9.32;;
62997;SDS011;55949;52.590;7.330;2022-08-26T00:15:15;11.02;;;9.10;;
62997;SDS011;55949;52.590;7.330;2022-08-26T00:16:18;12.80;;;8.93;;
62997;SDS011;55949;52.590;7.330;2022-08-26T00:17:19;16.75;;;9.35;;
62997;SDS011;55949;52.590;7.330;2022-08-26T00:18:20;16.30;;;9.93;;
62997;SDS011;55949;52.590;7.330;2022-08-26T00:19:20;15.85;;;9.40;;
62997;SDS011;55949;52.590;7.330;2022-08-26T00:20:23;12.55;;;9.45;;
62997;SDS011;55949;52.590;7.330;2022-08-26T00:21:26;11.63;;;8.93;;
62997;SDS011;55949;52.590;7.330;2022-08-26T00:22:27;13.40;;;9.02;;
62997;SDS011;55949;52.590;7.330;2022-08-26T00:23:27;14.18;;;9.00;;
62997;SDS011;55949;52.590;7.330;2022-08-26T00:24:28;11.65;;;8.52;;
62997;SDS011;55949;52.590;7.330;2022-08-26T00:25:29;10.55;;;8.82;;
62997;SDS011;55949;52.590;7.330;2022-08-26T00:26:30;12.63;;;9.02;;
62997;SDS011;55949;52.590;7.330;2022-08-26T00:27:32;10.30;;;7.97;;
62997;SDS011;55949;52.590;7.330;2022-08-26T00:28:34;13.13;;;9.38;;
62997;SDS011;55949;52.590;7.330;2022-08-26T00:29:35;14.18;;;9.43;;
62997;SDS011;55949;52.590;7.330;2022-08-26T00:30:35;12.10;;;8.93;;
62997;SDS011;55949;52.590;7.330;2022-08-26T00:31:36;10.63;;;8.25;;
62997;SDS011;55949;52.590;7.330;2022-08-26T00:32:37;12.70;;;9.10;;
62997;SDS011;55949;52.590;7.330;2022-08-26T00:33:38;11.45;;;9.05;;
62997;SDS011;55949;52.590;7.330;2022-08-26T00:34:39;12.93;;;9.48;;
62997;SDS011;55949;52.590;7.330;2022-08-26T00:35:40;12.48;;;8.68;;
62997;SDS011;55949;52.590;7.330;2022-08-26T00:36:41;13.15;;;10.20;;
62997;SDS011;55949;52.590;7.330;2022-08-26T00:37:43;13.05;;;9.88;;
62997;SDS011;55949;52.590;7.330;2022-08-26T00:38:44;14.43;;;10.35;;
62997;SDS011;55949;52.590;7.330;2022-08-26T00:39:44;15.50;;;9.90;;
62997;SDS011;55949;52.590;7.330;2022-08-26T00:40:49;14.20;;;10.45;;
62997;SDS011;55949;52.590;7.330;2022-08-26T00:41:52;14.48;;;9.85;;
62997;SDS011;55949;52.590;7.330;2022-08-26T00:42:54;14.52;;;10.85;;
62997;SDS011;55949;52.590;7.330;2022-08-26T00:43:54;16.30;;;10.57;;
62997;SDS011;55949;52.590;7.330;2022-08-26T00:44:55;14.25;;;11.38;;
62997;SDS011;55949;52.590;7.330;2022-08-26T00:46:00;16.55;;;12.50;;
62997;SDS011;55949;52.590;7.330;2022-08-26T00:47:37;18.02;;;11.43;;
62997;SDS011;55949;52.590;7.330;2022-08-26T00:48:40;15.18;;;11.68;;
62997;SDS011;55949;52.590;7.330;2022-08-26T00:49:44;16.77;;;11.32;;
62997;SDS011;55949;52.590;7.330;2022-08-26T00:50:51;16.77;;;12.32;;
62997;SDS011;55949;52.590;7.330;2022-08-26T00:51:57;16.13;;;11.60;;
62997;SDS011;55949;52.590;7.330;2022-08-26T00:53:01;17.70;;;13.10;;
62997;SDS011;55949;52.590;7.330;2022-08-26T00:54:04;16.13;;;11.77;;
62997;SDS011;55949;52.590;7.330;2022-08-26T00:55:09;18.00;;;12.07;;
62997;SDS011;55949;52.590;7.330;2022-08-26T00:56:27;20.10;;;11.77;;
62997;SDS011;55949;52.590;7.330;2022-08-26T00:57:59;17.80;;;11.65;;
62997;SDS011;55949;52.590;7.330;2022-08-26T00:59:02;15.05;;;11.43;;
62997;SDS011;55949;52.590;7.330;2022-08-26T01:00:17;17.58;;;12.10;;
62997;SDS011;55949;52.590;7.330;2022-08-26T01:01:23;18.95;;;11.85;;
62997;SDS011;55949;52.590;7.330;2022-08-26T01:02:25;15.55;;;11.02;;
62997;SDS011;55949;52.590;7.330;2022-08-26T01:03:26;20.77;;;12.18;;
62997;SDS011;55949;52.590;7.330;2022-08-26T01:04:30;17.00;;;12.30;;
62997;SDS011;55949;52.590;7.330;2022-08-26T01:05:34;17.10;;;12.07;;
62997;SDS011;55949;52.590;7.330;2022-08-26T01:06:37;17.10;;;12.07;;
62997;SDS011;55949;52.590;7.330;2022-08-26T01:07:38;16.52;;;10.88;;
62997;SDS011;55949;52.590;7.330;2022-08-26T01:08:39;14.32;;;11.05;;
62997;SDS011;55949;52.590;7.330;2022-08-26T01:09:40;21.48;;;11.15;;
62997;SDS011;55949;52.590;7.330;2022-08-26T01:10:40;13.65;;;10.90;;
62997;SDS011;55949;52.590;7.330;2022-08-26T01:11:42;18.95;;;10.93;;
62997;SDS011;55949;52.590;7.330;2022-08-26T01:12:44;17.92;;;10.88;;
62997;SDS011;55949;52.590;7.330;2022-08-26T01:13:50;14.15;;;11.55;;
62997;SDS011;55949;52.590;7.330;2022-08-26T01:14:55;15.45;;;11.68;;
62997;SDS011;55949;52.590;7.330;2022-08-26T01:15:57;16.33;;;11.30;;
62997;SDS011;55949;52.590;7.330;2022-08-26T01:17:01;17.88;;;11.90;;
62997;SDS011;55949;52.590;7.330;2022-08-26T01:18:05;22.63;;;11.75;;
62997;SDS011;55949;52.590;7.330;2022-08-26T01:19:09;17.70;;;12.25;;
62997;SDS011;55949;52.590;7.330;2022-08-26T01:22:15;15.43;;;10.40;;
62997;SDS011;55949;52.590;7.330;2022-08-26T01:23:28;15.45;;;11.20;;
62997;SDS011;55949;52.590;7.330;2022-08-26T01:24:32;15.52;;;10.90;;
62997;SDS011;55949;52.590;7.330;2022-08-26T01:25:36;17.77;;;11.25;;
62997;SDS011;55949;52.590;7.330;2022-08-26T01:26:40;16.55;;;12.32;;
62997;SDS011;55949;52.590;7.330;2022-08-26T01:27:43;15.02;;;11.77;;
62997;SDS011;55949;52.590;7.330;2022-08-26T01:28:45;14.68;;;11.15;;
62997;SDS011;55949;52.590;7.330;2022-08-26T01:29:49;14.35;;;11.77;;
62997;SDS011;55949;52.590;7.330;2022-08-26T01:30:51;16.40;;;11.90;;
62997;SDS011;55949;52.590;7.330;2022-08-26T01:31:54;12.98;;;10.50;;
62997;SDS011;55949;52.590;7.330;2022-08-26T01:32:56;15.93;;;11.02;;
62997;SDS011;55949;52.590;7.330;2022-08-26T01:34:02;12.73;;;10.82;;
62997;SDS011;55949;52.590;7.330;2022-08-26T01:35:24;13.23;;;10.70;;
62997;SDS011;55949;52.590;7.330;2022-08-26T01:36:25;16.23;;;10.85;;
62997;SDS011;55949;52.590;7.330;2022-08-26T01:37:28;16.40;;;11.07;;
62997;SDS011;55949;52.590;7.330;2022-08-26T01:38:33;15.80;;;10.20;;
62997;SDS011;55949;52.590;7.330;2022-08-26T01:39:34;14.70;;;10.00;;
62997;SDS011;55949;52.590;7.330;2022-08-26T01:40:37;14.63;;;9.93;;
62997;SDS011;55949;52.590;7.330;2022-08-26T01:41:39;16.13;;;10.80;;
62997;SDS011;55949;52.590;7.330;2022-08-26T01:42:40;14.60;;;9.35;;
62997;SDS011;55949;52.590;7.330;2022-08-26T01:43:43;13.55;;;9.63;;
62997;SDS011;55949;52.590;7.330;2022-08-26T01:44:50;13.40;;;9.80;;
62997;SDS011;55949;52.590;7.330;2022-08-26T01:45:54;14.75;;;9.32;;
62997;SDS011;55949;52.590;7.330;2022-08-26T01:46:55;15.35;;;10.05;;
62997;SDS011;55949;52.590;7.330;2022-08-26T01:47:58;14.73;;;10.93;;
62997;SDS011;55949;52.590;7.330;2022-08-26T01:49:02;17.02;;;10.35;;
62997;SDS011;55949;52.590;7.330;2022-08-26T01:50:10;12.95;;;9.32;;
62997;SDS011;55949;52.590;7.330;2022-08-26T01:51:17;17.95;;;11.52;;
62997;SDS011;55949;52.590;7.330;2022-08-26T01:52:23;16.83;;;11.68;;
62997;SDS011;55949;52.590;7.330;2022-08-26T01:53:26;14.85;;;11.50;;
62997;SDS011;55949;52.590;7.330;2022-08-26T01:54:27;20.48;;;12.93;;
62997;SDS011;55949;52.590;7.330;2022-08-26T01:55:27;15.63;;;12.45;;
62997;SDS011;55949;52.590;7.330;2022-08-26T01:56:30;15.32;;;11.25;;
62997;SDS011;55949;52.590;7.330;2022-08-26T01:57:31;14.70;;;10.77;;
62997;SDS011;55949;52.590;7.330;2022-08-26T01:59:36;16.50;;;10.65;;
62997;SDS011;55949;52.590;7.330;2022-08-26T02:00:37;11.55;;;10.00;;
62997;SDS011;55949;52.590;7.330;2022-08-26T02:01:38;13.43;;;10.25;;
62997;SDS011;55949;52.590;7.330;2022-08-26T02:02:40;16.38;;;10.55;;
62997;SDS011;55949;52.590;7.330;2022-08-26T02:03:48;13.68;;;10.27;;
62997;SDS011;55949;52.590;7.330;2022-08-26T02:04:58;12.85;;;10.63;;
62997;SDS011;55949;52.590;7.330;2022-08-26T02:06:03;15.30;;;11.13;;
62997;SDS011;55949;52.590;7.330;2022-08-26T02:07:07;13.98;;;11.57;;
62997;SDS011;55949;52.590;7.330;2022-08-26T02:08:09;16.15;;;9.43;;
62997;SDS011;55949;52.590;7.330;2022-08-26T02:09:10;13.20;;;8.90;;
62997;SDS011;55949;52.590;7.330;2022-08-26T02:10:11;13.25;;;9.60;;
62997;SDS011;55949;52.590;7.330;2022-08-26T02:11:12;14.90;;;9.98;;
62997;SDS011;55949;52.590;7.330;2022-08-26T02:12:14;20.05;;;12.10;;
62997;SDS011;55949;52.590;7.330;2022-08-26T02:13:17;12.63;;;9.73;;
62997;SDS011;55949;52.590;7.330;2022-08-26T02:14:19;12.07;;;9.00;;
62997;SDS011;55949;52.590;7.330;2022-08-26T02:15:27;14.93;;;9.93;;
62997;SDS011;55949;52.590;7.330;2022-08-26T02:16:28;16.83;;;11.07;;
62997;SDS011;55949;52.590;7.330;2022-08-26T02:17:38;16.33;;;11.15;;
62997;SDS011;55949;52.590;7.330;2022-08-26T02:18:44;15.07;;;11.63;;
62997;SDS011;55949;52.590;7.330;2022-08-26T02:19:48;15.02;;;10.80;;
62997;SDS011;55949;52.590;7.330;2022-08-26T02:20:50;18.17;;;11.60;;
62997;SDS011;55949;52.590;7.330;2022-08-26T02:21:53;16.52;;;12.05;;
62997;SDS011;55949;52.590;7.330;2022-08-26T02:22:55;19.77;;;12.43;;
62997;SDS011;55949;52.590;7.330;2022-08-26T02:23:55;17.67;;;12.77;;
62997;SDS011;55949;52.590;7.330;2022-08-26T02:25:17;22.52;;;13.25;;
62997;SDS011;55949;52.590;7.330;2022-08-26T02:26:31;17.17;;;12.02;;
62997;SDS011;55949;52.590;7.330;2022-08-26T02:27:32;18.23;;;12.85;;
62997;SDS011;55949;52.590;7.330;2022-08-26T02:28:45;17.67;;;12.00;;
62997;SDS011;55949;52.590;7.330;2022-08-26T02:30:24;19.75;;;12.30;;
62997;SDS011;55949;52.590;7.330;2022-08-26T02:31:27;17.40;;;12.65;;
62997;SDS011;55949;52.590;7.330;2022-08-26T02:32:28;20.63;;;12.70;;
62997;SDS011;55949;52.590;7.330;2022-08-26T02:33:29;18.23;;;13.65;;
62997;SDS011;55949;52.590;7.330;2022-08-26T02:34:31;17.85;;;13.77;;
62997;SDS011;55949;52.590;7.330;2022-08-26T02:35:33;26.20;;;13.38;;
62997;SDS011;55949;52.590;7.330;2022-08-26T02:36:34;17.77;;;13.27;;
62997;SDS011;55949;52.590;7.330;2022-08-26T02:37:35;18.38;;;13.75;;
62997;SDS011;55949;52.590;7.330;2022-08-26T02:38:36;17.52;;;13.75;;
62997;SDS011;55949;52.590;7.330;2022-08-26T02:39:38;20.90;;;14.15;;
62997;SDS011;55949;52.590;7.330;2022-08-26T02:40:40;22.70;;;15.07;;
62997;SDS011;55949;52.590;7.330;2022-08-26T02:41:43;18.55;;;13.00;;
62997;SDS011;55949;52.590;7.330;2022-08-26T02:42:44;19.17;;;14.25;;
62997;SDS011;55949;52.590;7.330;2022-08-26T02:43:45;18.77;;;12.68;;
62997;SDS011;55949;52.590;7.330;2022-08-26T02:44:46;18.42;;;13.13;;
62997;SDS011;55949;52.590;7.330;2022-08-26T02:45:47;17.17;;;11.85;;
62997;SDS011;55949;52.590;7.330;2022-08-26T02:46:47;16.83;;;13.23;;
62997;SDS011;55949;52.590;7.330;2022-08-26T02:47:49;21.67;;;13.65;;
62997;SDS011;55949;52.590;7.330;2022-08-26T02:48:50;16.75;;;13.38;;
62997;SDS011;55949;52.590;7.330;2022-08-26T02:49:51;20.13;;;13.82;;
62997;SDS011;55949;52.590;7.330;2022-08-26T02:50:52;16.90;;;14.63;;
62997;SDS011;55949;52.590;7.330;2022-08-26T02:51:53;23.50;;;14.95;;
62997;SDS011;55949;52.590;7.330;2022-08-26T02:52:54;22.60;;;14.27;;
62997;SDS011;55949;52.590;7.330;2022-08-26T02:53:55;17.77;;;14.70;;
62997;SDS011;55949;52.590;7.330;2022-08-26T02:54:56;24.27;;;15.65;;
62997;SDS011;55949;52.590;7.330;2022-08-26T02:55:56;18.45;;;14.48;;
62997;SDS011;55949;52.590;7.330;2022-08-26T02:56:57;22.10;;;15.05;;
62997;SDS011;55949;52.590;7.330;2022-08-26T02:57:58;22.33;;;17.55;;
62997;SDS011;55949;52.590;7.330;2022-08-26T02:59:00;24.38;;;15.73;;
62997;SDS011;55949;52.590;7.330;2022-08-26T03:00:01;24.00;;;17.23;;
62997;SDS011;55949;52.590;7.330;2022-08-26T03:01:03;26.75;;;16.55;;
62997;SDS011;55949;52.590;7.330;2022-08-26T03:02:05;22.42;;;17.60;;
62997;SDS011;55949;52.590;7.330;2022-08-26T03:03:06;25.30;;;18.45;;
62997;SDS011;55949;52.590;7.330;2022-08-26T03:04:07;25.15;;;17.50;;
62997;SDS011;55949;52.590;7.330;2022-08-26T03:05:10;25.27;;;17.50;;
62997;SDS011;55949;52.590;7.330;2022-08-26T03:06:11;29.30;;;18.55;;
62997;SDS011;55949;52.590;7.330;2022-08-26T03:07:12;24.55;;;18.40;;
62997;SDS011;55949;52.590;7.330;2022-08-26T03:08:12;25.42;;;17.88;;
62997;SDS011;55949;52.590;7.330;2022-08-26T03:09:13;25.77;;;19.65;;
62997;SDS011;55949;52.590;7.330;2022-08-26T03:10:14;26.15;;;19.45;;
62997;SDS011;55949;52.590;7.330;2022-08-26T03:11:15;27.67;;;19.75;;
62997;SDS011;55949;52.590;7.330;2022-08-26T03:12:17;26.27;;;20.63;;
62997;SDS011;55949;52.590;7.330;2022-08-26T03:13:19;27.08;;;20.20;;
62997;SDS011;55949;52.590;7.330;2022-08-26T03:14:20;30.20;;;21.20;;
62997;SDS011;55949;52.590;7.330;2022-08-26T03:15:22;33.13;;;22.98;;
62997;SDS011;55949;52.590;7.330;2022-08-26T03:16:23;32.45;;;23.70;;
62997;SDS011;55949;52.590;7.330;2022-08-26T03:17:24;33.92;;;24.52;;
62997;SDS011;55949;52.590;7.330;2022-08-26T03:18:25;33.42;;;24.50;;
62997;SDS011;55949;52.590;7.330;2022-08-26T03:19:25;37.92;;;25.92;;
62997;SDS011;55949;52.590;7.330;2022-08-26T03:20:26;35.70;;;27.23;;
62997;SDS011;55949;52.590;7.330;2022-08-26T03:21:27;44.15;;;29.42;;
62997;SDS011;55949;52.590;7.330;2022-08-26T03:22:29;34.97;;;28.10;;
62997;SDS011;55949;52.590;7.330;2022-08-26T03:23:29;41.67;;;28.73;;
62997;SDS011;55949;52.590;7.330;2022-08-26T03:24:30;39.95;;;29.88;;
62997;SDS011;55949;52.590;7.330;2022-08-26T03:25:31;39.88;;;31.08;;
62997;SDS011;55949;52.590;7.330;2022-08-26T03:26:31;46.10;;;31.52;;
62997;SDS011;55949;52.590;7.330;2022-08-26T03:27:32;40.67;;;29.95;;
62997;SDS011;55949;52.590;7.330;2022-08-26T03:28:33;40.33;;;30.60;;
62997;SDS011;55949;52.590;7.330;2022-08-26T03:29:35;40.40;;;29.33;;
62997;SDS011;55949;52.590;7.330;2022-08-26T03:30:54;44.17;;;31.37;;
62997;SDS011;55949;52.590;7.330;2022-08-26T03:31:56;44.90;;;31.73;;
62997;SDS011;55949;52.590;7.330;2022-08-26T03:32:57;44.58;;;32.85;;
62997;SDS011;55949;52.590;7.330;2022-08-26T03:33:58;43.78;;;32.30;;
62997;SDS011;55949;52.590;7.330;2022-08-26T03:34:59;47.25;;;34.67;;
62997;SDS011;55949;52.590;7.330;2022-08-26T03:35:59;47.20;;;33.63;;
62997;SDS011;55949;52.590;7.330;2022-08-26T03:37:02;46.45;;;35.70;;
62997;SDS011;55949;52.590;7.330;2022-08-26T03:38:04;48.28;;;35.83;;
62997;SDS011;55949;52.590;7.330;2022-08-26T03:39:07;48.05;;;35.80;;
62997;SDS011;55949;52.590;7.330;2022-08-26T03:40:08;50.45;;;37.00;;
62997;SDS011;55949;52.590;7.330;2022-08-26T03:41:10;50.05;;;35.92;;
62997;SDS011;55949;52.590;7.330;2022-08-26T03:42:11;54.88;;;36.05;;
62997;SDS011;55949;52.590;7.330;2022-08-26T03:43:12;52.35;;;38.65;;
62997;SDS011;55949;52.590;7.330;2022-08-26T03:44:14;59.40;;;37.83;;
62997;SDS011;55949;52.590;7.330;2022-08-26T03:45:16;56.00;;;38.58;;
62997;SDS011;55949;52.590;7.330;2022-08-26T03:46:18;60.60;;;39.75;;
62997;SDS011;55949;52.590;7.330;2022-08-26T03:47:19;66.43;;;41.95;;
62997;SDS011;55949;52.590;7.330;2022-08-26T03:48:20;65.78;;;42.13;;
62997;SDS011;55949;52.590;7.330;2022-08-26T03:49:20;66.40;;;41.47;;
62997;SDS011;55949;52.590;7.330;2022-08-26T03:50:22;77.70;;;43.03;;
62997;SDS011;55949;52.590;7.330;2022-08-26T03:51:23;71.18;;;44.92;;
62997;SDS011;55949;52.590;7.330;2022-08-26T03:52:24;68.70;;;41.90;;
62997;SDS011;55949;52.590;7.330;2022-08-26T03:53:25;80.15;;;42.17;;
62997;SDS011;55949;52.590;7.330;2022-08-26T03:54:26;70.22;;;43.13;;
62997;SDS011;55949;52.590;7.330;2022-08-26T03:55:28;77.05;;;43.25;;
62997;SDS011;55949;52.590;7.330;2022-08-26T03:56:33;71.25;;;44.58;;
62997;SDS011;55949;52.590;7.330;2022-08-26T03:57:33;74.55;;;44.88;;
62997;SDS011;55949;52.590;7.330;2022-08-26T03:58:35;77.88;;;46.30;;
62997;SDS011;55949;52.590;7.330;2022-08-26T03:59:36;77.88;;;46.13;;
62997;SDS011;55949;52.590;7.330;2022-08-26T04:00:37;78.57;;;46.72;;
62997;SDS011;55949;52.590;7.330;2022-08-26T04:01:38;82.65;;;47.83;;
62997;SDS011;55949;52.590;7.330;2022-08-26T04:02:39;75.80;;;45.92;;
62997;SDS011;55949;52.590;7.330;2022-08-26T04:03:45;74.53;;;44.25;;
62997;SDS011;55949;52.590;7.330;2022-08-26T04:04:58;80.10;;;44.92;;
62997;SDS011;55949;52.590;7.330;2022-08-26T04:05:59;81.07;;;47.92;;
62997;SDS011;55949;52.590;7.330;2022-08-26T04:06:59;81.63;;;46.25;;
62997;SDS011;55949;52.590;7.330;2022-08-26T04:08:00;84.40;;;48.92;;
62997;SDS011;55949;52.590;7.330;2022-08-26T04:09:05;87.18;;;47.00;;
62997;SDS011;55949;52.590;7.330;2022-08-26T04:10:08;78.35;;;46.78;;
62997;SDS011;55949;52.590;7.330;2022-08-26T04:11:17;81.82;;;45.90;;
62997;SDS011;55949;52.590;7.330;2022-08-26T04:12:20;82.35;;;45.80;;
62997;SDS011;55949;52.590;7.330;2022-08-26T04:13:21;80.72;;;44.78;;
62997;SDS011;55949;52.590;7.330;2022-08-26T04:14:22;77.38;;;45.47;;
62997;SDS011;55949;52.590;7.330;2022-08-26T04:15:25;80.60;;;47.78;;
62997;SDS011;55949;52.590;7.330;2022-08-26T04:16:26;84.25;;;46.78;;
62997;SDS011;55949;52.590;7.330;2022-08-26T04:17:28;80.40;;;44.85;;
62997;SDS011;55949;52.590;7.330;2022-08-26T04:18:29;84.22;;;46.03;;
62997;SDS011;55949;52.590;7.330;2022-08-26T04:19:31;81.35;;;46.72;;
62997;SDS011;55949;52.590;7.330;2022-08-26T04:20:32;83.45;;;47.60;;
62997;SDS011;55949;52.590;7.330;2022-08-26T04:21:33;83.13;;;47.45;;
62997;SDS011;55949;52.590;7.330;2022-08-26T04:22:34;75.43;;;46.47;;
62997;SDS011;55949;52.590;7.330;2022-08-26T04:23:35;75.70;;;46.75;;
62997;SDS011;55949;52.590;7.330;2022-08-26T04:24:36;80.50;;;46.65;;
62997;SDS011;55949;52.590;7.330;2022-08-26T04:25:38;84.07;;;46.95;;
62997;SDS011;55949;52.590;7.330;2022-08-26T04:26:40;75.22;;;43.88;;
62997;SDS011;55949;52.590;7.330;2022-08-26T04:27:42;81.28;;;44.65;;
62997;SDS011;55949;52.590;7.330;2022-08-26T04:28:42;73.32;;;45.15;;
62997;SDS011;55949;52.590;7.330;2022-08-26T04:29:43;77.40;;;46.42;;
62997;SDS011;55949;52.590;7.330;2022-08-26T04:30:45;78.40;;;45.58;;
62997;SDS011;55949;52.590;7.330;2022-08-26T04:31:46;76.18;;;46.10;;
62997;SDS011;55949;52.590;7.330;2022-08-26T04:32:49;76.75;;;45.55;;
62997;SDS011;55949;52.590;7.330;2022-08-26T04:33:50;77.60;;;44.70;;
62997;SDS011;55949;52.590;7.330;2022-08-26T04:34:51;77.15;;;43.25;;
62997;SDS011;55949;52.590;7.330;2022-08-26T04:35:58;79.30;;;45.17;;
62997;SDS011;55949;52.590;7.330;2022-08-26T04:37:00;77.10;;;44.72;;
62997;SDS011;55949;52.590;7.330;2022-08-26T04:38:01;67.30;;;43.15;;
62997;SDS011;55949;52.590;7.330;2022-08-26T04:39:02;72.70;;;42.80;;
62997;SDS011;55949;52.590;7.330;2022-08-26T04:40:04;77.45;;;44.25;;
62997;SDS011;55949;52.590;7.330;2022-08-26T04:41:08;81.38;;;43.28;;
62997;SDS011;55949;52.590;7.330;2022-08-26T04:42:10;70.95;;;43.28;;
62997;SDS011;55949;52.590;7.330;2022-08-26T04:43:12;67.72;;;41.92;;
62997;SDS011;55949;52.590;7.330;2022-08-26T04:44:14;69.28;;;42.72;;
62997;SDS011;55949;52.590;7.330;2022-08-26T04:45:15;69.72;;;41.58;;
62997;SDS011;55949;52.590;7.330;2022-08-26T04:46:17;67.38;;;42.47;;
62997;SDS011;55949;52.590;7.330;2022-08-26T04:47:23;72.60;;;41.92;;
62997;SDS011;55949;52.590;7.330;2022-08-26T04:48:24;69.53;;;42.40;;
62997;SDS011;55949;52.590;7.330;2022-08-26T04:49:27;67.63;;;41.70;;
62997;SDS011;55949;52.590;7.330;2022-08-26T04:50:28;67.45;;;41.78;;
62997;SDS011;55949;52.590;7.330;2022-08-26T04:51:29;61.38;;;38.80;;
62997;SDS011;55949;52.590;7.330;2022-08-26T04:52:29;66.90;;;40.95;;
62997;SDS011;55949;52.590;7.330;2022-08-26T04:53:30;70.65;;;41.55;;
62997;SDS011;55949;52.590;7.330;2022-08-26T04:54:31;66.18;;;41.35;;
62997;SDS011;55949;52.590;7.330;2022-08-26T04:55:32;60.35;;;39.50;;
62997;SDS011;55949;52.590;7.330;2022-08-26T04:56:36;71.32;;;40.45;;
62997;SDS011;55949;52.590;7.330;2022-08-26T04:57:38;68.60;;;40.42;;
62997;SDS011;55949;52.590;7.330;2022-08-26T04:58:39;63.00;;;38.55;;
62997;SDS011;55949;52.590;7.330;2022-08-26T04:59:40;64.03;;;40.50;;
62997;SDS011;55949;52.590;7.330;2022-08-26T05:00:42;73.60;;;40.53;;
62997;SDS011;55949;52.590;7.330;2022-08-26T05:01:48;67.45;;;37.85;;
62997;SDS011;55949;52.590;7.330;2022-08-26T05:02:51;63.20;;;38.45;;
62997;SDS011;55949;52.590;7.330;2022-08-26T05:03:52;55.70;;;36.58;;
62997;SDS011;55949;52.590;7.330;2022-08-26T05:04:53;65.35;;;38.28;;
62997;SDS011;55949;52.590;7.330;2022-08-26T05:05:54;61.05;;;38.03;;
62997;SDS011;55949;52.590;7.330;2022-08-26T05:06:55;51.40;;;34.40;;
62997;SDS011;55949;52.590;7.330;2022-08-26T05:07:56;58.13;;;37.15;;
62997;SDS011;55949;52.590;7.330;2022-08-26T05:08:57;59.60;;;36.15;;
62997;SDS011;55949;52.590;7.330;2022-08-26T05:09:57;62.63;;;36.30;;
62997;SDS011;55949;52.590;7.330;2022-08-26T05:11:02;51.88;;;35.25;;
62997;SDS011;55949;52.590;7.330;2022-08-26T05:12:04;55.92;;;36.38;;
62997;SDS011;55949;52.590;7.330;2022-08-26T05:13:05;61.15;;;36.10;;
62997;SDS011;55949;52.590;7.330;2022-08-26T05:14:06;60.05;;;36.42;;
62997;SDS011;55949;52.590;7.330;2022-08-26T05:15:07;57.15;;;36.20;;
62997;SDS011;55949;52.590;7.330;2022-08-26T05:16:10;56.35;;;35.75;;
62997;SDS011;55949;52.590;7.330;2022-08-26T05:17:11;58.67;;;35.60;;
62997;SDS011;55949;52.590;7.330;2022-08-26T05:18:12;63.33;;;37.35;;
62997;SDS011;55949;52.590;7.330;2022-08-26T05:19:15;59.53;;;36.72;;
62997;SDS011;55949;52.590;7.330;2022-08-26T05:20:16;56.97;;;36.67;;
62997;SDS011;55949;52.590;7.330;2022-08-26T05:21:18;61.15;;;36.55;;
62997;SDS011;55949;52.590;7.330;2022-08-26T05:22:23;58.45;;;36.33;;
62997;SDS011;55949;52.590;7.330;2022-08-26T05:23:24;53.53;;;36.25;;
62997;SDS011;55949;52.590;7.330;2022-08-26T05:24:25;52.28;;;35.55;;
62997;SDS011;55949;52.590;7.330;2022-08-26T05:25:26;58.88;;;37.90;;
62997;SDS011;55949;52.590;7.330;2022-08-26T05:26:28;61.25;;;37.17;;
62997;SDS011;55949;52.590;7.330;2022-08-26T05:27:30;66.18;;;37.47;;
62997;SDS011;55949;52.590;7.330;2022-08-26T05:28:30;58.80;;;36.88;;
62997;SDS011;55949;52.590;7.330;2022-08-26T05:29:31;64.80;;;37.92;;
62997;SDS011;55949;52.590;7.330;2022-08-26T05:30:32;58.50;;;37.45;;
62997;SDS011;55949;52.590;7.330;2022-08-26T05:31:33;55.15;;;34.78;;
62997;SDS011;55949;52.590;7.330;2022-08-26T05:32:34;62.97;;;36.75;;
62997;SDS011;55949;52.590;7.330;2022-08-26T05:33:35;62.80;;;35.88;;
62997;SDS011;55949;52.590;7.330;2022-08-26T05:34:36;61.60;;;36.08;;
62997;SDS011;55949;52.590;7.330;2022-08-26T05:35:37;65.05;;;37.90;;
62997;SDS011;55949;52.590;7.330;2022-08-26T05:36:38;57.28;;;36.08;;
62997;SDS011;55949;52.590;7.330;2022-08-26T05:37:39;61.53;;;36.78;;
62997;SDS011;55949;52.590;7.330;2022-08-26T05:38:40;60.92;;;37.10;;
62997;SDS011;55949;52.590;7.330;2022-08-26T05:39:41;59.08;;;35.92;;
62997;SDS011;55949;52.590;7.330;2022-08-26T05:40:43;61.40;;;36.22;;
62997;SDS011;55949;52.590;7.330;2022-08-26T05:41:45;51.33;;;36.17;;
62997;SDS011;55949;52.590;7.330;2022-08-26T05:42:46;56.95;;;36.50;;
62997;SDS011;55949;52.590;7.330;2022-08-26T05:43:47;60.75;;;37.20;;
62997;SDS011;55949;52.590;7.330;2022-08-26T05:44:51;60.92;;;35.40;;
62997;SDS011;55949;52.590;7.330;2022-08-26T05:45:52;58.33;;;37.05;;
62997;SDS011;55949;52.590;7.330;2022-08-26T05:46:53;55.20;;;35.13;;
62997;SDS011;55949;52.590;7.330;2022-08-26T05:47:53;58.97;;;34.78;;
62997;SDS011;55949;52.590;7.330;2022-08-26T05:48:55;56.22;;;34.33;;
62997;SDS011;55949;52.590;7.330;2022-08-26T05:49:56;53.08;;;34.97;;
62997;SDS011;55949;52.590;7.330;2022-08-26T05:51:00;53.75;;;34.95;;
62997;SDS011;55949;52.590;7.330;2022-08-26T05:52:05;56.17;;;34.95;;
62997;SDS011;55949;52.590;7.330;2022-08-26T05:53:07;54.03;;;34.05;;
62997;SDS011;55949;52.590;7.330;2022-08-26T05:54:09;52.50;;;33.65;;
62997;SDS011;55949;52.590;7.330;2022-08-26T05:55:10;52.63;;;33.13;;
62997;SDS011;55949;52.590;7.330;2022-08-26T05:56:11;49.60;;;33.05;;
62997;SDS011;55949;52.590;7.330;2022-08-26T05:57:12;48.67;;;33.47;;
62997;SDS011;55949;52.590;7.330;2022-08-26T05:58:13;53.28;;;34.15;;
62997;SDS011;55949;52.590;7.330;2022-08-26T05:59:14;52.45;;;35.17;;
62997;SDS011;55949;52.590;7.330;2022-08-26T06:00:15;52.35;;;34.20;;
62997;SDS011;55949;52.590;7.330;2022-08-26T06:01:19;52.00;;;33.78;;
62997;SDS011;55949;52.590;7.330;2022-08-26T06:02:22;50.33;;;33.17;;
62997;SDS011;55949;52.590;7.330;2022-08-26T06:03:22;47.85;;;32.80;;
62997;SDS011;55949;52.590;7.330;2022-08-26T06:04:23;50.60;;;32.60;;
62997;SDS011;55949;52.590;7.330;2022-08-26T06:05:24;52.90;;;32.40;;
62997;SDS011;55949;52.590;7.330;2022-08-26T06:06:29;46.60;;;32.90;;
62997;SDS011;55949;52.590;7.330;2022-08-26T06:07:32;53.78;;;33.38;;
62997;SDS011;55949;52.590;7.330;2022-08-26T06:08:53;52.83;;;34.65;;
62997;SDS011;55949;52.590;7.330;2022-08-26T06:09:54;53.97;;;34.70;;
62997;SDS011;55949;52.590;7.330;2022-08-26T06:10:58;56.33;;;35.20;;